createdAt,value
2019-01-19T00:00:35.050Z,-2.91
2019-01-19T00:03:21.488Z,-2.84
2019-01-19T00:06:28.769Z,-2.83
2019-01-19T00:09:00.708Z,-2.86
2019-01-19T00:11:51.350Z,-2.88
2019-01-19T00:14:23.638Z,-2.90
2019-01-19T00:17:21.118Z,-2.87
2019-01-19T00:20:34.301Z,-2.82
2019-01-19T00:23:32.089Z,-2.83
2019-01-19T00:26:27.393Z,-2.85
2019-01-19T00:29:04.440Z,-2.83
2019-01-19T00:31:41.367Z,-2.80
2019-01-19T00:34:34.182Z,-2.78
2019-01-19T00:37:09.276Z,-2.78
2019-01-19T00:40:22.292Z,-2.82
2019-01-19T00:42:56.619Z,-2.83
2019-01-19T00:45:36.649Z,-2.78
2019-01-19T00:48:34.988Z,-2.73
2019-01-19T00:51:31.765Z,-2.78
2019-01-19T00:54:14.999Z,-2.80
2019-01-19T00:57:01.250Z,-2.80
2019-01-19T00:59:32.321Z,-2.80
2019-01-19T01:02:30.488Z,-2.81
2019-01-19T01:05:04.983Z,-2.77
2019-01-19T01:07:50.935Z,-2.80
2019-01-19T01:10:48.874Z,-2.77
2019-01-19T01:13:31.736Z,-2.78
2019-01-19T01:16:20.988Z,-2.88
2019-01-19T01:19:01.037Z,-2.86
2019-01-19T01:22:06.870Z,-2.93
2019-01-19T01:24:55.386Z,-2.84
2019-01-19T01:27:41.380Z,-2.94
2019-01-19T01:30:45.474Z,-3.01
2019-01-19T01:33:48.200Z,-2.98
2019-01-19T01:36:58.411Z,-2.98
2019-01-19T01:39:41.861Z,-3.06
2019-01-19T01:42:32.377Z,-3.03
2019-01-19T01:45:24.130Z,-3.03
2019-01-19T01:48:28.249Z,-3.01
2019-01-19T01:51:20.404Z,-3.02
2019-01-19T01:54:12.228Z,-3.05
2019-01-19T01:56:41.838Z,-3.05
2019-01-19T01:59:21.883Z,-3.09
2019-01-19T02:02:04.881Z,-3.09
2019-01-19T02:05:01.344Z,-3.03
2019-01-19T02:07:44.092Z,-2.95
2019-01-19T02:10:42.281Z,-3.10
2019-01-19T02:13:33.974Z,-3.07
2019-01-19T02:16:45.110Z,-3.03
2019-01-19T02:19:52.118Z,-2.98
2019-01-19T02:22:26.515Z,-2.88
2019-01-19T02:25:03.329Z,-2.88
2019-01-19T02:28:10.356Z,-2.91
2019-01-19T02:31:11.607Z,-2.89
2019-01-19T02:34:07.828Z,-2.94
2019-01-19T02:37:16.490Z,-2.82
2019-01-19T02:40:02.584Z,-2.84
2019-01-19T02:42:48.534Z,-2.87
2019-01-19T02:46:00.591Z,-2.90
2019-01-19T02:48:58.565Z,-2.70
2019-01-19T02:51:41.402Z,-2.61
2019-01-19T02:54:18.825Z,-2.74
2019-01-19T02:57:12.066Z,-2.70
2019-01-19T03:00:01.468Z,-2.73
2019-01-19T03:02:58.204Z,-2.70
2019-01-19T03:05:37.912Z,-2.80
2019-01-19T03:08:54.031Z,-2.72
2019-01-19T03:11:31.215Z,-2.65
2019-01-19T03:14:26.296Z,-2.77
2019-01-19T03:17:18.347Z,-2.86
2019-01-19T03:20:00.985Z,-2.86
2019-01-19T03:22:40.717Z,-2.73
2019-01-19T03:25:49.745Z,-2.83
2019-01-19T03:28:33.044Z,-2.85
2019-01-19T03:31:38.752Z,-2.84
2019-01-19T03:34:15.514Z,-2.90
2019-01-19T03:37:28.698Z,-2.94
2019-01-19T03:40:28.629Z,-2.94
2019-01-19T03:43:17.645Z,-2.87
2019-01-19T03:46:30.777Z,-2.94
2019-01-19T03:49:28.398Z,-2.96
2019-01-19T03:52:32.311Z,-2.87
2019-01-19T03:55:48.348Z,-2.74
2019-01-19T03:58:33.836Z,-2.74
2019-01-19T04:01:33.611Z,-2.76
2019-01-19T04:04:39.001Z,-2.91
2019-01-19T04:07:18.583Z,-2.87
2019-01-19T04:10:01.860Z,-2.87
2019-01-19T04:13:05.621Z,-2.76
2019-01-19T04:15:40.134Z,-2.70
2019-01-19T04:18:25.854Z,-2.69
2019-01-19T04:21:14.847Z,-2.70
2019-01-19T04:23:49.402Z,-2.74
2019-01-19T04:26:22.271Z,-2.87
2019-01-19T04:28:52.020Z,-2.90
2019-01-19T04:31:21.617Z,-2.91
2019-01-19T04:33:51.347Z,-2.88
2019-01-19T04:36:21.646Z,-2.83
2019-01-19T04:38:51.596Z,-2.93
2019-01-19T04:41:20.907Z,-3.04
2019-01-19T04:43:50.243Z,-2.99
2019-01-19T04:46:19.612Z,-3.08
2019-01-19T04:48:49.207Z,-3.14
2019-01-19T04:51:18.798Z,-3.21
2019-01-19T04:53:48.125Z,-3.15
2019-01-19T04:56:17.511Z,-3.12
2019-01-19T04:58:46.833Z,-3.24
2019-01-19T05:01:16.168Z,-3.24
2019-01-19T05:03:45.799Z,-3.30
2019-01-19T05:06:15.109Z,-3.28
2019-01-19T05:08:44.441Z,-3.27
2019-01-19T05:11:13.766Z,-3.21
2019-01-19T05:13:43.404Z,-3.27
2019-01-19T05:16:12.727Z,-3.25
2019-01-19T05:18:42.333Z,-3.24
2019-01-19T05:21:11.964Z,-3.16
2019-01-19T05:23:41.577Z,-3.42
2019-01-19T05:26:11.172Z,-3.19
2019-01-19T05:28:40.526Z,-3.16
2019-01-19T05:31:10.148Z,-3.20
2019-01-19T05:33:39.749Z,-3.28
2019-01-19T05:36:09.112Z,-3.38
2019-01-19T05:38:38.485Z,-3.41
2019-01-19T05:41:07.833Z,-3.46
2019-01-19T05:43:37.484Z,-3.43
2019-01-19T05:46:07.154Z,-3.29
2019-01-19T05:48:36.788Z,-3.44
2019-01-19T05:51:06.154Z,-3.39
2019-01-19T05:53:35.489Z,-3.57
2019-01-19T05:56:05.135Z,-3.58
2019-01-19T05:58:34.563Z,-3.56
2019-01-19T06:01:04.135Z,-3.59
2019-01-19T06:03:33.766Z,-3.61
2019-01-19T06:06:04.058Z,-3.63
2019-01-19T06:08:33.679Z,-3.61
2019-01-19T06:11:03.298Z,-3.57
2019-01-19T06:13:32.903Z,-3.55
2019-01-19T06:16:02.547Z,-3.59
2019-01-19T06:18:33.569Z,-3.59
2019-01-19T06:21:03.985Z,-3.59
2019-01-19T06:23:33.354Z,-3.61
2019-01-19T06:26:02.733Z,-3.68
2019-01-19T06:28:32.073Z,-3.66
2019-01-19T06:31:01.427Z,-3.67
2019-01-19T06:33:30.803Z,-3.77
2019-01-19T06:36:00.162Z,-3.70
2019-01-19T06:38:29.524Z,-3.86
2019-01-19T06:40:59.197Z,-4.01
2019-01-19T06:43:28.796Z,-3.91
2019-01-19T06:45:58.441Z,-3.93
2019-01-19T06:48:27.777Z,-3.94
2019-01-19T06:50:57.095Z,-3.98
2019-01-19T06:53:26.517Z,-3.93
2019-01-19T06:55:56.100Z,-3.89
2019-01-19T06:58:25.473Z,-3.85
2019-01-19T07:00:54.810Z,-3.90
2019-01-19T07:03:24.154Z,-3.76
2019-01-19T07:05:53.762Z,-3.85
2019-01-19T07:08:23.103Z,-3.82
2019-01-19T07:10:52.717Z,-3.78
2019-01-19T07:13:22.325Z,-3.77
2019-01-19T07:15:51.928Z,-3.73
2019-01-19T07:18:21.559Z,-3.68
2019-01-19T07:20:50.896Z,-3.70
2019-01-19T07:23:20.303Z,-3.62
2019-01-19T07:25:49.927Z,-4.10
2019-01-19T07:28:19.281Z,-3.56
2019-01-19T07:30:48.905Z,-3.52
2019-01-19T07:33:18.339Z,-3.48
2019-01-19T07:35:48.012Z,-3.88
2019-01-19T07:38:17.368Z,-3.53
2019-01-19T07:40:46.709Z,-3.61
2019-01-19T07:43:16.228Z,-3.63
2019-01-19T07:45:45.610Z,-3.57
2019-01-19T07:48:15.125Z,-3.60
2019-01-19T07:50:44.489Z,-3.38
2019-01-19T07:53:13.846Z,-3.45
2019-01-19T07:55:43.191Z,-3.34
2019-01-19T07:58:12.820Z,-3.34
2019-01-19T08:00:42.478Z,-3.28
2019-01-19T08:03:12.825Z,-3.21
2019-01-19T08:05:42.549Z,-3.19
2019-01-19T08:08:12.194Z,-3.15
2019-01-19T08:10:41.849Z,-3.15
2019-01-19T08:13:11.476Z,-3.05
2019-01-19T08:15:41.079Z,-3.06
2019-01-19T08:18:13.852Z,-2.92
2019-01-19T08:20:43.583Z,-2.88
2019-01-19T08:23:13.250Z,-2.89
2019-01-19T08:25:42.863Z,-2.90
2019-01-19T08:28:15.450Z,-2.69
2019-01-19T08:30:45.062Z,-2.54
2019-01-19T08:33:14.390Z,-2.39
2019-01-19T08:35:44.807Z,-2.42
2019-01-19T08:38:14.443Z,-2.32
2019-01-19T08:40:43.772Z,-2.27
2019-01-19T08:43:15.020Z,-2.31
2019-01-19T08:45:44.921Z,-2.25
2019-01-19T08:48:14.583Z,-2.19
2019-01-19T08:50:44.169Z,-2.17
2019-01-19T08:53:13.532Z,-2.00
2019-01-19T08:55:42.876Z,-1.84
2019-01-19T08:58:12.413Z,-1.86
2019-01-19T09:00:41.995Z,-1.88
2019-01-19T09:03:11.614Z,-1.78
2019-01-19T09:05:40.992Z,-1.74
2019-01-19T09:08:10.665Z,-1.65
2019-01-19T09:10:40.308Z,-1.72
2019-01-19T09:13:09.656Z,-1.78
2019-01-19T09:15:38.968Z,-1.76
2019-01-19T09:18:08.560Z,-1.59
2019-01-19T09:20:37.933Z,-1.42
2019-01-19T09:23:17.900Z,-1.37
2019-01-19T09:25:47.499Z,-1.32
2019-01-19T09:28:17.205Z,-1.27
2019-01-19T09:30:46.748Z,-1.26
2019-01-19T09:33:16.061Z,-1.19
2019-01-19T09:35:45.420Z,-1.07
2019-01-19T09:38:15.054Z,-1.10
2019-01-19T09:40:44.414Z,-1.04
2019-01-19T09:43:14.032Z,-0.86
2019-01-19T09:45:43.419Z,-0.96
2019-01-19T09:48:13.151Z,-0.92
2019-01-19T09:50:42.472Z,-0.82
2019-01-19T09:53:12.077Z,-0.85
2019-01-19T09:55:41.431Z,-0.77
2019-01-19T09:58:10.796Z,-0.87
2019-01-19T10:00:45.577Z,-0.63
2019-01-19T10:03:11.805Z,-0.50
2019-01-19T10:05:41.124Z,-0.51
2019-01-19T10:08:10.783Z,-0.47
2019-01-19T10:10:40.650Z,-0.28
2019-01-19T10:13:10.353Z,-0.12
2019-01-19T10:15:39.939Z,-0.01
2019-01-19T10:18:09.791Z,0.09
2019-01-19T10:20:39.507Z,0.17
2019-01-19T10:23:08.844Z,0.25
2019-01-19T10:25:38.459Z,0.35
2019-01-19T10:28:08.044Z,0.56
2019-01-19T10:30:37.778Z,0.78
2019-01-19T10:33:07.365Z,0.69
2019-01-19T10:35:37.091Z,0.87
2019-01-19T10:38:06.644Z,0.87
2019-01-19T10:40:36.301Z,0.96
2019-01-19T10:43:06.005Z,0.99
2019-01-19T10:45:35.661Z,1.17
2019-01-19T10:48:05.204Z,1.34
2019-01-19T10:50:34.579Z,1.55
2019-01-19T10:53:04.161Z,1.90
2019-01-19T10:55:33.493Z,2.11
2019-01-19T10:58:02.922Z,2.72
2019-01-19T11:00:35.143Z,3.68
2019-01-19T11:03:04.525Z,4.18
2019-01-19T11:05:34.256Z,4.46
2019-01-19T11:08:05.789Z,4.54
2019-01-19T11:10:35.931Z,4.98
2019-01-19T11:13:05.308Z,5.86
2019-01-19T11:15:34.680Z,6.14
2019-01-19T11:18:04.287Z,6.98
2019-01-19T11:20:33.755Z,6.90
2019-01-19T11:23:03.399Z,5.53
2019-01-19T11:25:35.754Z,5.08
2019-01-19T11:28:05.128Z,5.49
2019-01-19T11:30:35.108Z,6.12
2019-01-19T11:33:06.914Z,6.29
2019-01-19T11:35:37.397Z,6.31
2019-01-19T11:38:11.889Z,6.62
2019-01-19T11:40:39.131Z,6.81
2019-01-19T11:43:09.213Z,7.22
2019-01-19T11:45:38.968Z,6.93
2019-01-19T11:48:08.400Z,6.81
2019-01-19T11:50:38.041Z,6.77
2019-01-19T11:53:10.301Z,8.00
2019-01-19T11:55:41.367Z,8.31
2019-01-19T11:58:10.967Z,9.14
2019-01-19T12:00:40.949Z,9.54
2019-01-19T12:03:10.758Z,9.74
2019-01-19T12:05:40.175Z,8.65
2019-01-19T12:08:10.249Z,8.44
2019-01-19T12:10:39.870Z,8.21
2019-01-19T12:13:09.631Z,6.60
2019-01-19T12:15:38.965Z,6.62
2019-01-19T12:18:08.285Z,7.40
2019-01-19T12:20:41.018Z,7.77
2019-01-19T12:23:10.851Z,7.68
2019-01-19T12:25:40.156Z,7.46
2019-01-19T12:28:09.571Z,6.03
2019-01-19T12:30:39.446Z,5.32
2019-01-19T12:33:09.055Z,5.44
2019-01-19T12:35:38.571Z,6.07
2019-01-19T12:38:08.178Z,6.78
2019-01-19T12:40:37.523Z,7.22
2019-01-19T12:43:11.449Z,5.90
2019-01-19T12:45:48.500Z,5.55
2019-01-19T12:48:17.812Z,5.86
2019-01-19T12:50:53.331Z,6.18
2019-01-19T12:53:22.954Z,5.99
2019-01-19T12:55:52.266Z,4.87
2019-01-19T12:58:21.719Z,4.30
2019-01-19T13:00:51.291Z,3.71
2019-01-19T13:03:20.910Z,3.67
2019-01-19T13:05:58.010Z,3.45
2019-01-19T13:08:34.406Z,3.05
2019-01-19T13:11:17.443Z,2.89
2019-01-19T13:13:48.365Z,2.96
2019-01-19T13:16:38.837Z,3.01
2019-01-19T13:19:36.579Z,2.97
2019-01-19T13:22:35.836Z,2.78
2019-01-19T13:25:40.257Z,2.78
2019-01-19T13:28:47.102Z,2.75
2019-01-19T13:31:36.156Z,2.71
2019-01-19T13:34:19.099Z,2.63
2019-01-19T13:37:24.712Z,2.59
2019-01-19T13:40:10.978Z,2.59
2019-01-19T13:42:53.917Z,2.60
2019-01-19T13:45:31.168Z,2.63
2019-01-19T13:48:13.765Z,2.70
2019-01-19T13:51:16.510Z,2.90
2019-01-19T13:54:15.816Z,3.00
2019-01-19T13:57:01.512Z,3.18
2019-01-19T13:59:53.627Z,3.08
2019-01-19T14:02:39.730Z,2.89
2019-01-19T14:05:31.921Z,2.68
2019-01-19T14:08:12.265Z,2.70
2019-01-19T14:10:55.387Z,2.76
2019-01-19T14:13:35.466Z,2.77
2019-01-19T14:16:12.776Z,2.70
2019-01-19T14:18:47.250Z,2.64
2019-01-19T14:21:36.620Z,2.50
2019-01-19T14:24:34.064Z,2.40
2019-01-19T14:27:34.871Z,2.34
2019-01-19T14:30:24.389Z,2.23
2019-01-19T14:33:16.185Z,2.13
2019-01-19T14:36:25.516Z,2.21
2019-01-19T14:39:32.549Z,2.20
2019-01-19T14:42:15.949Z,2.20
2019-01-19T14:44:56.046Z,2.12
2019-01-19T14:47:44.896Z,2.07
2019-01-19T14:50:36.786Z,2.02
2019-01-19T14:53:34.069Z,2.03
2019-01-19T14:56:29.496Z,1.99
2019-01-19T14:59:12.522Z,1.94
2019-01-19T15:02:03.945Z,1.85
2019-01-19T15:04:55.877Z,1.82
2019-01-19T15:07:50.964Z,1.77
2019-01-19T15:10:33.962Z,1.82
2019-01-19T15:13:13.857Z,1.74
2019-01-19T15:16:26.931Z,1.72
2019-01-19T15:19:49.191Z,1.69
2019-01-19T15:22:46.318Z,1.63
2019-01-19T15:25:35.435Z,1.71
2019-01-19T15:28:26.880Z,1.61
2019-01-19T15:31:25.622Z,1.53
2019-01-19T15:34:31.197Z,1.41
2019-01-19T15:37:17.166Z,1.38
2019-01-19T15:40:17.271Z,1.40
2019-01-19T15:42:51.540Z,1.31
2019-01-19T15:45:37.766Z,1.14
2019-01-19T15:48:27.262Z,1.12
2019-01-19T15:51:24.132Z,1.11
2019-01-19T15:54:33.248Z,1.05
2019-01-19T15:57:21.463Z,0.95
2019-01-19T16:00:13.826Z,0.83
2019-01-19T16:03:00.118Z,0.72
2019-01-19T16:05:52.420Z,0.75
2019-01-19T16:08:50.570Z,0.82
2019-01-19T16:11:43.013Z,0.74
2019-01-19T16:14:45.068Z,0.63
2019-01-19T16:17:22.029Z,0.59
2019-01-19T16:20:16.778Z,0.54
2019-01-19T16:23:03.061Z,0.46
2019-01-19T16:25:42.872Z,0.46
2019-01-19T16:28:38.397Z,0.40
2019-01-19T16:31:30.359Z,0.29
2019-01-19T16:34:30.281Z,0.20
2019-01-19T16:37:13.212Z,0.15
2019-01-19T16:40:20.833Z,0.14
2019-01-19T16:43:19.463Z,0.03
2019-01-19T16:46:01.639Z,0.02
2019-01-19T16:48:56.978Z,0.02
2019-01-19T16:51:46.083Z,-0.03
2019-01-19T16:54:35.365Z,-0.11
2019-01-19T16:57:34.057Z,-0.14
2019-01-19T17:00:48.575Z,-0.06
2019-01-19T17:03:35.755Z,-0.21
2019-01-19T17:06:27.746Z,-0.27
2019-01-19T17:09:33.452Z,-0.34
2019-01-19T17:12:28.769Z,-0.29
2019-01-19T17:15:26.625Z,-0.26
2019-01-19T17:18:23.191Z,-0.28
2019-01-19T17:21:38.925Z,-0.36
2019-01-19T17:24:32.279Z,-0.40
2019-01-19T17:27:15.441Z,-0.47
2019-01-19T17:30:22.405Z,-0.45
2019-01-19T17:33:21.072Z,-0.42
2019-01-19T17:36:10.532Z,-0.51
2019-01-19T17:39:13.542Z,-0.53
2019-01-19T17:42:13.234Z,-0.63
2019-01-19T17:45:02.724Z,-0.60
2019-01-19T17:47:45.783Z,-0.70
2019-01-19T17:50:42.303Z,-0.70
2019-01-19T17:53:53.588Z,-0.77
2019-01-19T17:56:56.495Z,-0.80
2019-01-19T17:59:36.550Z,-0.84
2019-01-19T18:02:21.268Z,-0.84
2019-01-19T18:05:30.234Z,-0.89
2019-01-19T18:08:31.562Z,-0.93
2019-01-19T18:11:32.732Z,-0.88
2019-01-19T18:14:09.303Z,-0.90
2019-01-19T18:17:03.088Z,-0.99
2019-01-19T18:20:01.028Z,-1.02
2019-01-19T18:22:49.597Z,-1.03
2019-01-19T18:25:39.404Z,-1.02
2019-01-19T18:28:26.218Z,-0.98
2019-01-19T18:31:29.861Z,-0.97
2019-01-19T18:34:14.020Z,-1.04
2019-01-19T18:36:57.043Z,-1.11
2019-01-19T18:39:34.276Z,-1.15
2019-01-19T18:42:16.103Z,-1.07
2019-01-19T18:45:18.074Z,-1.17
2019-01-19T18:48:04.217Z,-1.21
2019-01-19T18:50:50.447Z,-1.20
2019-01-19T18:53:42.686Z,-1.30
2019-01-19T18:56:25.420Z,-1.23
2019-01-19T18:59:22.134Z,-1.20
2019-01-19T19:02:07.821Z,-1.18
2019-01-19T19:05:05.490Z,-1.30
2019-01-19T19:07:45.652Z,-1.40
2019-01-19T19:10:36.298Z,-1.46
2019-01-19T19:13:30.966Z,-1.42
2019-01-19T19:16:24.193Z,-1.49
2019-01-19T19:19:21.652Z,-1.46
2019-01-19T19:22:10.025Z,-1.56
2019-01-19T19:24:58.974Z,-1.49
2019-01-19T19:28:07.655Z,-1.48
2019-01-19T19:30:57.160Z,-1.57
2019-01-19T19:34:02.899Z,-1.61
2019-01-19T19:36:54.388Z,-1.62
2019-01-19T19:39:53.675Z,-1.65
2019-01-19T19:42:33.365Z,-1.64
2019-01-19T19:45:10.464Z,-1.65
2019-01-19T19:48:01.825Z,-1.67
2019-01-19T19:51:01.921Z,-1.57
2019-01-19T19:53:33.716Z,-1.61
2019-01-19T19:56:05.145Z,-1.76
2019-01-19T19:58:34.981Z,-1.80
2019-01-19T20:01:04.353Z,-1.92
2019-01-19T20:03:33.876Z,-1.95
2019-01-19T20:06:04.136Z,-1.97
2019-01-19T20:08:34.902Z,-1.91
2019-01-19T20:11:04.263Z,-1.90
2019-01-19T20:13:33.620Z,-1.88
2019-01-19T20:16:02.960Z,-1.83
2019-01-19T20:18:32.596Z,-1.92
2019-01-19T20:21:02.266Z,-1.89
2019-01-19T20:23:31.618Z,-1.97
2019-01-19T20:26:01.248Z,-2.05
2019-01-19T20:28:30.870Z,-2.08
2019-01-19T20:31:00.295Z,-2.02
2019-01-19T20:33:30.100Z,-1.88
2019-01-19T20:35:59.496Z,-1.92
2019-01-19T20:38:29.795Z,-2.01
2019-01-19T20:40:59.209Z,-2.10
2019-01-19T20:43:28.814Z,-2.10
2019-01-19T20:45:58.143Z,-2.14
2019-01-19T20:48:28.072Z,-2.20
2019-01-19T20:50:57.677Z,-2.17
2019-01-19T20:53:27.311Z,-2.25
2019-01-19T20:55:56.717Z,-2.27
2019-01-19T20:58:26.053Z,-2.20
2019-01-19T21:00:55.687Z,-2.27
2019-01-19T21:03:25.345Z,-2.26
2019-01-19T21:05:54.667Z,-2.23
2019-01-19T21:08:24.027Z,-2.30
2019-01-19T21:10:53.681Z,-2.31
2019-01-19T21:13:23.066Z,-2.38
2019-01-19T21:15:52.401Z,-2.33
2019-01-19T21:18:21.764Z,-2.37
2019-01-19T21:20:51.400Z,-2.33
2019-01-19T21:23:20.744Z,-2.36
2019-01-19T21:25:50.123Z,-2.36
2019-01-19T21:28:19.790Z,-2.42
2019-01-19T21:30:49.138Z,-2.46
2019-01-19T21:33:18.732Z,-2.50
2019-01-19T21:35:48.099Z,-2.50
2019-01-19T21:38:17.555Z,-2.52
2019-01-19T21:40:46.891Z,-2.58
2019-01-19T21:43:16.472Z,-2.56
2019-01-19T21:45:45.924Z,-2.57
2019-01-19T21:48:15.269Z,-2.56
2019-01-19T21:50:44.872Z,-2.64
2019-01-19T21:53:14.214Z,-2.63
2019-01-19T21:55:43.871Z,-2.38
2019-01-19T21:58:13.205Z,-2.41
2019-01-19T22:00:42.822Z,-2.57
2019-01-19T22:03:12.436Z,-2.54
2019-01-19T22:05:41.778Z,-2.64
2019-01-19T22:08:11.506Z,-2.73
2019-01-19T22:10:46.292Z,-2.73
2019-01-19T22:13:12.521Z,-2.82
2019-01-19T22:15:42.229Z,-2.83
2019-01-19T22:18:11.593Z,-2.83
2019-01-19T22:20:40.993Z,-2.82
2019-01-19T22:23:10.351Z,-2.84
2019-01-19T22:25:40.144Z,-2.95
2019-01-19T22:28:09.778Z,-2.97
2019-01-19T22:30:39.443Z,-2.91
2019-01-19T22:33:09.727Z,-2.84
2019-01-19T22:35:39.532Z,-2.69
2019-01-19T22:38:08.893Z,-2.64
2019-01-19T22:40:38.230Z,-2.66
2019-01-19T22:43:08.229Z,-2.84
2019-01-19T22:45:38.162Z,-2.92
2019-01-19T22:48:07.768Z,-2.97
2019-01-19T22:50:37.425Z,-2.98
2019-01-19T22:53:06.840Z,-2.99
2019-01-19T22:55:36.326Z,-2.98
2019-01-19T22:58:05.674Z,-3.01
2019-01-19T23:00:58.726Z,-2.81
2019-01-19T23:03:30.496Z,-2.84
2019-01-19T23:06:00.167Z,-2.88
2019-01-19T23:08:29.533Z,-2.86
2019-01-19T23:11:01.309Z,-2.87
2019-01-19T23:13:30.255Z,-2.91
2019-01-19T23:15:59.647Z,-2.94
2019-01-19T23:18:28.979Z,-2.93
2019-01-19T23:20:58.628Z,-3.00
2019-01-19T23:23:27.964Z,-2.99
2019-01-19T23:25:59.064Z,-2.96
2019-01-19T23:28:28.693Z,-2.93
2019-01-19T23:30:58.035Z,-2.99
2019-01-19T23:33:27.656Z,-2.93
2019-01-19T23:35:57.304Z,-2.91
2019-01-19T23:38:27.029Z,-2.98
2019-01-19T23:40:56.947Z,-2.91
2019-01-19T23:43:26.560Z,-2.91
2019-01-19T23:45:55.898Z,-2.96
2019-01-19T23:48:25.272Z,-2.96
2019-01-19T23:50:54.687Z,-2.86
2019-01-19T23:53:24.295Z,-2.90
2019-01-19T23:55:53.914Z,-2.93
2019-01-19T23:58:23.548Z,-2.92
